Country
Station

 

Weather  for  Dutch Harbor  -  United States    United States

  
9 °C (48 °F)
    
 
 

Current METAR for Dutch Harbor is :

PADU 212156Z 16005KT 10SM FEW036 SCT110 BKN200 09/04 A3025 RMK AO2 SLP248 MH T00940039

 

This is a report for Dutch Harbor - United States.
 
The report was made 55 minutes ago, at 21:56 UTC .
The wind was blowing at a speed of 2.6 meters per second (5.8 miles per hour) from south/southeast (160°).
 
The temperature was 9 °C (48 °F), with a dew-point at 4 °C (39 °F).
The atmospheric pressure was 1024 hPa (30.25 inHg).
The relative humidity was 70.8%.
 
There were a few clouds at a height of 1097 meters (3600 feet), scattered clouds at a height of 3353 meters (11000 feet) and broken clouds at a height of 6096 meters (20000 feet).
 
The overall visibility was 16.1 kilometers (10.0 miles).
 

 
 
 
 

Country :   A   B   C   D   E   F   G   H   I   J   K   L   M   N   O   P   Q   R   S   T   U   V   W   Y   Z

 

Site Info  |  Disclaimer  |  Credits  |  Privacy
Contact us  |  Add to favorites
© 2013-2018 METARs - All rights reserved